sensor_id;sensor_type;location;lat;lon;timestamp;P1;durP1;ratioP1;P2;durP2;ratioP2
69392;SDS011;56582;44.624;20.378;2022-07-23T00:02:24;13.00;;;4.40;;
69392;SDS011;56582;44.624;20.378;2022-07-23T00:04:50;9.57;;;4.90;;
69392;SDS011;56582;44.624;20.378;2022-07-23T00:07:16;9.83;;;4.10;;
69392;SDS011;56582;44.624;20.378;2022-07-23T00:09:41;7.95;;;4.13;;
69392;SDS011;56582;44.624;20.378;2022-07-23T00:12:07;8.67;;;4.73;;
69392;SDS011;56582;44.624;20.378;2022-07-23T00:14:32;9.85;;;4.28;;
69392;SDS011;56582;44.624;20.378;2022-07-23T00:16:58;7.17;;;4.73;;
69392;SDS011;56582;44.624;20.378;2022-07-23T00:19:24;9.57;;;4.55;;
69392;SDS011;56582;44.624;20.378;2022-07-23T00:21:49;7.93;;;4.10;;
69392;SDS011;56582;44.624;20.378;2022-07-23T00:24:15;9.83;;;4.10;;
69392;SDS011;56582;44.624;20.378;2022-07-23T00:26:40;10.93;;;4.82;;
69392;SDS011;56582;44.624;20.378;2022-07-23T00:29:05;10.10;;;4.47;;
69392;SDS011;56582;44.624;20.378;2022-07-23T00:31:31;8.60;;;4.40;;
69392;SDS011;56582;44.624;20.378;2022-07-23T00:33:59;8.90;;;4.78;;
69392;SDS011;56582;44.624;20.378;2022-07-23T00:36:26;9.68;;;5.20;;
69392;SDS011;56582;44.624;20.378;2022-07-23T00:38:52;12.32;;;4.93;;
69392;SDS011;56582;44.624;20.378;2022-07-23T00:41:18;12.40;;;4.80;;
69392;SDS011;56582;44.624;20.378;2022-07-23T00:43:44;16.05;;;4.80;;
69392;SDS011;56582;44.624;20.378;2022-07-23T00:46:09;14.83;;;5.20;;
69392;SDS011;56582;44.624;20.378;2022-07-23T00:48:35;11.20;;;4.85;;
69392;SDS011;56582;44.624;20.378;2022-07-23T00:51:00;13.93;;;5.03;;
69392;SDS011;56582;44.624;20.378;2022-07-23T00:53:26;13.47;;;5.20;;
69392;SDS011;56582;44.624;20.378;2022-07-23T00:55:52;9.88;;;4.82;;
69392;SDS011;56582;44.624;20.378;2022-07-23T00:58:20;12.57;;;4.97;;
69392;SDS011;56582;44.624;20.378;2022-07-23T01:00:46;15.23;;;4.80;;
69392;SDS011;56582;44.624;20.378;2022-07-23T01:03:12;15.20;;;5.30;;
69392;SDS011;56582;44.624;20.378;2022-07-23T01:05:37;14.20;;;4.80;;
69392;SDS011;56582;44.624;20.378;2022-07-23T01:08:03;11.67;;;4.47;;
69392;SDS011;56582;44.624;20.378;2022-07-23T01:10:30;13.00;;;4.00;;
69392;SDS011;56582;44.624;20.378;2022-07-23T01:12:56;14.47;;;4.80;;
69392;SDS011;56582;44.624;20.378;2022-07-23T01:15:39;14.13;;;4.50;;
69392;SDS011;56582;44.624;20.378;2022-07-23T01:18:06;11.77;;;4.65;;
69392;SDS011;56582;44.624;20.378;2022-07-23T01:20:32;14.68;;;4.75;;
69392;SDS011;56582;44.624;20.378;2022-07-23T01:22:58;7.80;;;4.20;;
69392;SDS011;56582;44.624;20.378;2022-07-23T01:25:23;14.85;;;5.10;;
69392;SDS011;56582;44.624;20.378;2022-07-23T01:27:50;10.57;;;4.57;;
69392;SDS011;56582;44.624;20.378;2022-07-23T01:30:17;9.57;;;4.47;;
69392;SDS011;56582;44.624;20.378;2022-07-23T01:32:42;13.87;;;5.03;;
69392;SDS011;56582;44.624;20.378;2022-07-23T01:35:08;13.10;;;5.03;;
69392;SDS011;56582;44.624;20.378;2022-07-23T01:37:35;11.83;;;4.93;;
69392;SDS011;56582;44.624;20.378;2022-07-23T01:40:01;11.18;;;4.32;;
69392;SDS011;56582;44.624;20.378;2022-07-23T01:42:26;12.57;;;4.78;;
69392;SDS011;56582;44.624;20.378;2022-07-23T01:44:52;11.07;;;4.73;;
69392;SDS011;56582;44.624;20.378;2022-07-23T01:47:17;10.53;;;4.00;;
69392;SDS011;56582;44.624;20.378;2022-07-23T01:49:43;9.77;;;4.33;;
69392;SDS011;56582;44.624;20.378;2022-07-23T01:52:08;10.57;;;4.70;;
69392;SDS011;56582;44.624;20.378;2022-07-23T01:54:37;12.07;;;4.60;;
69392;SDS011;56582;44.624;20.378;2022-07-23T01:57:04;11.07;;;4.40;;
69392;SDS011;56582;44.624;20.378;2022-07-23T01:59:30;12.23;;;4.57;;
69392;SDS011;56582;44.624;20.378;2022-07-23T02:01:56;12.55;;;4.85;;
69392;SDS011;56582;44.624;20.378;2022-07-23T02:04:22;12.30;;;4.33;;
69392;SDS011;56582;44.624;20.378;2022-07-23T02:06:49;11.15;;;4.70;;
69392;SDS011;56582;44.624;20.378;2022-07-23T02:09:15;11.43;;;4.38;;
69392;SDS011;56582;44.624;20.378;2022-07-23T02:11:41;12.50;;;4.37;;
69392;SDS011;56582;44.624;20.378;2022-07-23T02:14:06;20.17;;;3.57;;
69392;SDS011;56582;44.624;20.378;2022-07-23T02:16:32;13.27;;;4.20;;
69392;SDS011;56582;44.624;20.378;2022-07-23T02:18:57;12.40;;;4.87;;
69392;SDS011;56582;44.624;20.378;2022-07-23T02:21:23;9.30;;;4.65;;
69392;SDS011;56582;44.624;20.378;2022-07-23T02:23:48;13.10;;;4.50;;
69392;SDS011;56582;44.624;20.378;2022-07-23T02:26:14;13.17;;;4.10;;
69392;SDS011;56582;44.624;20.378;2022-07-23T02:28:39;10.40;;;4.20;;
69392;SDS011;56582;44.624;20.378;2022-07-23T02:31:05;15.07;;;4.10;;
69392;SDS011;56582;44.624;20.378;2022-07-23T02:33:31;11.20;;;4.30;;
69392;SDS011;56582;44.624;20.378;2022-07-23T02:35:57;14.77;;;4.47;;
69392;SDS011;56582;44.624;20.378;2022-07-23T02:38:23;11.70;;;3.90;;
69392;SDS011;56582;44.624;20.378;2022-07-23T02:40:48;10.10;;;4.00;;
69392;SDS011;56582;44.624;20.378;2022-07-23T02:43:14;10.20;;;3.67;;
69392;SDS011;56582;44.624;20.378;2022-07-23T02:45:39;11.47;;;3.00;;
69392;SDS011;56582;44.624;20.378;2022-07-23T02:48:05;8.53;;;3.13;;
69392;SDS011;56582;44.624;20.378;2022-07-23T02:50:30;10.15;;;3.90;;
69392;SDS011;56582;44.624;20.378;2022-07-23T02:52:56;10.10;;;3.60;;
69392;SDS011;56582;44.624;20.378;2022-07-23T02:55:21;7.50;;;3.93;;
69392;SDS011;56582;44.624;20.378;2022-07-23T02:57:47;9.23;;;4.00;;
69392;SDS011;56582;44.624;20.378;2022-07-23T03:00:12;9.87;;;3.93;;
69392;SDS011;56582;44.624;20.378;2022-07-23T03:02:38;8.00;;;3.90;;
69392;SDS011;56582;44.624;20.378;2022-07-23T03:05:04;6.77;;;3.40;;
69392;SDS011;56582;44.624;20.378;2022-07-23T03:07:30;10.88;;;4.28;;
69392;SDS011;56582;44.624;20.378;2022-07-23T03:09:55;8.50;;;4.03;;
69392;SDS011;56582;44.624;20.378;2022-07-23T03:12:21;8.40;;;3.67;;
69392;SDS011;56582;44.624;20.378;2022-07-23T03:14:46;10.47;;;3.77;;
69392;SDS011;56582;44.624;20.378;2022-07-23T03:17:11;6.10;;;4.00;;
69392;SDS011;56582;44.624;20.378;2022-07-23T03:19:37;8.07;;;3.50;;
69392;SDS011;56582;44.624;20.378;2022-07-23T03:22:03;9.98;;;4.30;;
69392;SDS011;56582;44.624;20.378;2022-07-23T03:24:31;8.93;;;3.47;;
69392;SDS011;56582;44.624;20.378;2022-07-23T03:27:16;7.45;;;3.38;;
69392;SDS011;56582;44.624;20.378;2022-07-23T03:29:41;6.97;;;3.37;;
69392;SDS011;56582;44.624;20.378;2022-07-23T03:32:07;9.07;;;3.50;;
69392;SDS011;56582;44.624;20.378;2022-07-23T03:34:32;7.22;;;3.65;;
69392;SDS011;56582;44.624;20.378;2022-07-23T03:36:58;6.93;;;3.70;;
69392;SDS011;56582;44.624;20.378;2022-07-23T03:39:23;7.05;;;3.63;;
69392;SDS011;56582;44.624;20.378;2022-07-23T03:41:49;6.63;;;3.40;;
69392;SDS011;56582;44.624;20.378;2022-07-23T03:44:14;7.87;;;3.87;;
69392;SDS011;56582;44.624;20.378;2022-07-23T03:46:40;6.55;;;3.53;;
69392;SDS011;56582;44.624;20.378;2022-07-23T03:49:05;8.00;;;3.60;;
69392;SDS011;56582;44.624;20.378;2022-07-23T03:51:31;7.00;;;3.50;;
69392;SDS011;56582;44.624;20.378;2022-07-23T03:53:57;6.13;;;3.63;;
69392;SDS011;56582;44.624;20.378;2022-07-23T03:56:22;5.50;;;3.57;;
69392;SDS011;56582;44.624;20.378;2022-07-23T03:58:48;6.78;;;3.50;;
69392;SDS011;56582;44.624;20.378;2022-07-23T04:01:13;7.53;;;3.47;;
69392;SDS011;56582;44.624;20.378;2022-07-23T04:03:39;8.70;;;4.03;;
69392;SDS011;56582;44.624;20.378;2022-07-23T04:06:05;7.25;;;3.67;;
69392;SDS011;56582;44.624;20.378;2022-07-23T04:08:31;7.15;;;3.80;;
69392;SDS011;56582;44.624;20.378;2022-07-23T04:10:56;9.97;;;4.90;;
69392;SDS011;56582;44.624;20.378;2022-07-23T04:13:22;7.67;;;4.77;;
69392;SDS011;56582;44.624;20.378;2022-07-23T04:15:47;8.48;;;4.97;;
69392;SDS011;56582;44.624;20.378;2022-07-23T04:18:13;7.33;;;4.63;;
69392;SDS011;56582;44.624;20.378;2022-07-23T04:20:38;9.80;;;5.13;;
69392;SDS011;56582;44.624;20.378;2022-07-23T04:23:04;11.50;;;4.80;;
69392;SDS011;56582;44.624;20.378;2022-07-23T04:25:29;8.63;;;4.87;;
69392;SDS011;56582;44.624;20.378;2022-07-23T04:27:55;8.53;;;4.73;;
69392;SDS011;56582;44.624;20.378;2022-07-23T04:30:20;10.37;;;4.60;;
69392;SDS011;56582;44.624;20.378;2022-07-23T04:32:46;9.20;;;4.63;;
69392;SDS011;56582;44.624;20.378;2022-07-23T04:35:11;9.27;;;4.57;;
69392;SDS011;56582;44.624;20.378;2022-07-23T04:37:37;8.30;;;4.80;;
69392;SDS011;56582;44.624;20.378;2022-07-23T04:40:02;10.57;;;5.53;;
69392;SDS011;56582;44.624;20.378;2022-07-23T04:42:28;8.80;;;4.50;;
69392;SDS011;56582;44.624;20.378;2022-07-23T04:44:54;7.30;;;4.57;;
69392;SDS011;56582;44.624;20.378;2022-07-23T04:47:19;8.80;;;4.27;;
69392;SDS011;56582;44.624;20.378;2022-07-23T04:49:44;9.53;;;4.20;;
69392;SDS011;56582;44.624;20.378;2022-07-23T04:52:10;8.93;;;4.60;;
69392;SDS011;56582;44.624;20.378;2022-07-23T04:54:35;6.23;;;4.50;;
69392;SDS011;56582;44.624;20.378;2022-07-23T04:57:01;8.17;;;3.97;;
69392;SDS011;56582;44.624;20.378;2022-07-23T04:59:26;8.03;;;4.37;;
69392;SDS011;56582;44.624;20.378;2022-07-23T05:01:52;9.57;;;4.33;;
69392;SDS011;56582;44.624;20.378;2022-07-23T05:04:17;6.27;;;4.30;;
69392;SDS011;56582;44.624;20.378;2022-07-23T05:06:43;7.20;;;4.10;;
69392;SDS011;56582;44.624;20.378;2022-07-23T05:09:08;7.40;;;4.20;;
69392;SDS011;56582;44.624;20.378;2022-07-23T05:11:33;7.17;;;3.80;;
69392;SDS011;56582;44.624;20.378;2022-07-23T05:13:59;7.32;;;4.03;;
69392;SDS011;56582;44.624;20.378;2022-07-23T05:16:24;7.80;;;4.00;;
69392;SDS011;56582;44.624;20.378;2022-07-23T05:18:50;9.53;;;4.20;;
69392;SDS011;56582;44.624;20.378;2022-07-23T05:21:15;9.50;;;3.80;;
69392;SDS011;56582;44.624;20.378;2022-07-23T05:23:41;9.52;;;3.70;;
69392;SDS011;56582;44.624;20.378;2022-07-23T05:26:06;7.60;;;3.60;;
69392;SDS011;56582;44.624;20.378;2022-07-23T05:28:32;11.07;;;4.10;;
69392;SDS011;56582;44.624;20.378;2022-07-23T05:30:57;7.70;;;4.00;;
69392;SDS011;56582;44.624;20.378;2022-07-23T05:33:22;10.02;;;4.10;;
69392;SDS011;56582;44.624;20.378;2022-07-23T05:35:48;8.00;;;3.90;;
69392;SDS011;56582;44.624;20.378;2022-07-23T05:38:13;7.50;;;3.97;;
69392;SDS011;56582;44.624;20.378;2022-07-23T05:40:39;7.83;;;3.90;;
69392;SDS011;56582;44.624;20.378;2022-07-23T05:43:04;9.97;;;3.90;;
69392;SDS011;56582;44.624;20.378;2022-07-23T05:45:29;6.60;;;4.40;;
69392;SDS011;56582;44.624;20.378;2022-07-23T05:47:55;8.80;;;5.60;;
69392;SDS011;56582;44.624;20.378;2022-07-23T05:50:20;12.27;;;5.55;;
69392;SDS011;56582;44.624;20.378;2022-07-23T05:52:46;8.50;;;5.73;;
69392;SDS011;56582;44.624;20.378;2022-07-23T05:55:12;10.23;;;5.13;;
69392;SDS011;56582;44.624;20.378;2022-07-23T05:57:38;11.27;;;5.23;;
69392;SDS011;56582;44.624;20.378;2022-07-23T06:00:05;10.35;;;5.75;;
69392;SDS011;56582;44.624;20.378;2022-07-23T06:02:31;8.77;;;4.90;;
69392;SDS011;56582;44.624;20.378;2022-07-23T06:04:57;6.97;;;4.83;;
69392;SDS011;56582;44.624;20.378;2022-07-23T06:07:22;8.30;;;4.85;;
69392;SDS011;56582;44.624;20.378;2022-07-23T06:09:47;11.37;;;5.47;;
69392;SDS011;56582;44.624;20.378;2022-07-23T06:12:14;12.23;;;5.30;;
69392;SDS011;56582;44.624;20.378;2022-07-23T06:14:40;9.60;;;4.68;;
69392;SDS011;56582;44.624;20.378;2022-07-23T06:17:06;11.07;;;4.20;;
69392;SDS011;56582;44.624;20.378;2022-07-23T06:19:31;6.93;;;3.97;;
69392;SDS011;56582;44.624;20.378;2022-07-23T06:21:57;6.47;;;4.27;;
69392;SDS011;56582;44.624;20.378;2022-07-23T06:24:22;7.40;;;3.90;;
69392;SDS011;56582;44.624;20.378;2022-07-23T06:26:47;9.37;;;4.27;;
69392;SDS011;56582;44.624;20.378;2022-07-23T06:29:13;5.93;;;4.10;;
69392;SDS011;56582;44.624;20.378;2022-07-23T06:31:38;7.33;;;3.93;;
69392;SDS011;56582;44.624;20.378;2022-07-23T06:34:04;7.65;;;4.05;;
69392;SDS011;56582;44.624;20.378;2022-07-23T06:36:29;7.20;;;3.70;;
69392;SDS011;56582;44.624;20.378;2022-07-23T06:38:55;9.73;;;4.20;;
69392;SDS011;56582;44.624;20.378;2022-07-23T06:41:20;8.77;;;4.22;;
69392;SDS011;56582;44.624;20.378;2022-07-23T06:43:47;6.67;;;4.03;;
69392;SDS011;56582;44.624;20.378;2022-07-23T06:46:13;7.80;;;3.95;;
69392;SDS011;56582;44.624;20.378;2022-07-23T06:48:38;6.13;;;4.30;;
69392;SDS011;56582;44.624;20.378;2022-07-23T06:51:04;8.60;;;3.93;;
69392;SDS011;56582;44.624;20.378;2022-07-23T06:53:29;8.00;;;4.05;;
69392;SDS011;56582;44.624;20.378;2022-07-23T06:55:55;6.83;;;4.00;;
69392;SDS011;56582;44.624;20.378;2022-07-23T06:58:20;7.35;;;3.90;;
69392;SDS011;56582;44.624;20.378;2022-07-23T07:00:46;7.30;;;4.20;;
69392;SDS011;56582;44.624;20.378;2022-07-23T07:03:11;7.83;;;3.83;;
69392;SDS011;56582;44.624;20.378;2022-07-23T07:05:37;7.40;;;3.70;;
69392;SDS011;56582;44.624;20.378;2022-07-23T07:08:04;7.53;;;3.60;;
69392;SDS011;56582;44.624;20.378;2022-07-23T07:10:30;6.05;;;4.40;;
69392;SDS011;56582;44.624;20.378;2022-07-23T07:12:56;8.83;;;4.27;;
69392;SDS011;56582;44.624;20.378;2022-07-23T07:15:21;7.22;;;3.85;;
69392;SDS011;56582;44.624;20.378;2022-07-23T07:17:47;10.83;;;4.43;;
69392;SDS011;56582;44.624;20.378;2022-07-23T07:20:13;7.07;;;4.00;;
69392;SDS011;56582;44.624;20.378;2022-07-23T07:22:38;7.55;;;4.15;;
69392;SDS011;56582;44.624;20.378;2022-07-23T07:25:04;6.83;;;3.90;;
69392;SDS011;56582;44.624;20.378;2022-07-23T07:27:30;13.30;;;4.50;;
69392;SDS011;56582;44.624;20.378;2022-07-23T07:29:56;6.70;;;3.63;;
69392;SDS011;56582;44.624;20.378;2022-07-23T07:32:21;8.88;;;4.50;;
69392;SDS011;56582;44.624;20.378;2022-07-23T07:34:47;7.03;;;4.33;;
69392;SDS011;56582;44.624;20.378;2022-07-23T07:37:13;7.43;;;4.23;;
69392;SDS011;56582;44.624;20.378;2022-07-23T07:39:38;5.47;;;3.88;;
69392;SDS011;56582;44.624;20.378;2022-07-23T07:42:04;7.13;;;4.30;;
69392;SDS011;56582;44.624;20.378;2022-07-23T07:44:29;7.68;;;4.18;;
69392;SDS011;56582;44.624;20.378;2022-07-23T07:46:55;12.80;;;4.53;;
69392;SDS011;56582;44.624;20.378;2022-07-23T07:49:20;6.97;;;3.77;;
69392;SDS011;56582;44.624;20.378;2022-07-23T07:51:46;9.18;;;4.63;;
69392;SDS011;56582;44.624;20.378;2022-07-23T07:54:12;8.60;;;4.37;;
69392;SDS011;56582;44.624;20.378;2022-07-23T07:56:37;9.80;;;4.00;;
69392;SDS011;56582;44.624;20.378;2022-07-23T07:59:03;9.77;;;4.70;;
69392;SDS011;56582;44.624;20.378;2022-07-23T08:01:31;9.25;;;4.90;;
69392;SDS011;56582;44.624;20.378;2022-07-23T08:03:57;8.68;;;4.03;;
69392;SDS011;56582;44.624;20.378;2022-07-23T08:06:23;8.00;;;4.10;;
69392;SDS011;56582;44.624;20.378;2022-07-23T08:08:48;7.93;;;4.13;;
69392;SDS011;56582;44.624;20.378;2022-07-23T08:11:13;7.75;;;3.83;;
69392;SDS011;56582;44.624;20.378;2022-07-23T08:13:39;5.90;;;3.80;;
69392;SDS011;56582;44.624;20.378;2022-07-23T08:16:04;6.87;;;4.20;;
69392;SDS011;56582;44.624;20.378;2022-07-23T08:18:30;9.27;;;3.93;;
69392;SDS011;56582;44.624;20.378;2022-07-23T08:20:55;7.13;;;3.77;;
69392;SDS011;56582;44.624;20.378;2022-07-23T08:23:21;5.60;;;4.20;;
69392;SDS011;56582;44.624;20.378;2022-07-23T08:25:46;7.83;;;4.00;;
69392;SDS011;56582;44.624;20.378;2022-07-23T08:28:12;8.43;;;4.22;;
69392;SDS011;56582;44.624;20.378;2022-07-23T08:30:39;6.72;;;3.90;;
69392;SDS011;56582;44.624;20.378;2022-07-23T08:33:10;10.88;;;5.10;;
69392;SDS011;56582;44.624;20.378;2022-07-23T08:35:42;5.93;;;4.33;;
69392;SDS011;56582;44.624;20.378;2022-07-23T08:38:12;7.55;;;3.70;;
69392;SDS011;56582;44.624;20.378;2022-07-23T08:40:41;7.65;;;4.20;;
69392;SDS011;56582;44.624;20.378;2022-07-23T08:43:10;5.90;;;4.20;;
69392;SDS011;56582;44.624;20.378;2022-07-23T08:45:38;7.82;;;4.10;;
69392;SDS011;56582;44.624;20.378;2022-07-23T08:48:05;7.23;;;3.83;;
69392;SDS011;56582;44.624;20.378;2022-07-23T08:50:34;7.35;;;4.32;;
69392;SDS011;56582;44.624;20.378;2022-07-23T08:53:01;7.13;;;4.15;;
69392;SDS011;56582;44.624;20.378;2022-07-23T08:55:29;12.00;;;4.30;;
69392;SDS011;56582;44.624;20.378;2022-07-23T08:57:55;7.67;;;4.50;;
69392;SDS011;56582;44.624;20.378;2022-07-23T09:00:26;8.53;;;4.80;;
69392;SDS011;56582;44.624;20.378;2022-07-23T09:02:52;8.57;;;4.63;;
69392;SDS011;56582;44.624;20.378;2022-07-23T09:05:18;10.60;;;5.82;;
69392;SDS011;56582;44.624;20.378;2022-07-23T09:10:28;8.10;;;5.85;;
69392;SDS011;56582;44.624;20.378;2022-07-23T09:12:53;8.47;;;5.50;;
69392;SDS011;56582;44.624;20.378;2022-07-23T09:15:19;10.18;;;6.03;;
69392;SDS011;56582;44.624;20.378;2022-07-23T09:17:44;7.47;;;6.10;;
69392;SDS011;56582;44.624;20.378;2022-07-23T09:20:13;10.37;;;6.07;;
69392;SDS011;56582;44.624;20.378;2022-07-23T09:22:44;9.35;;;6.10;;
69392;SDS011;56582;44.624;20.378;2022-07-23T09:25:12;9.30;;;5.75;;
69392;SDS011;56582;44.624;20.378;2022-07-23T09:27:56;10.27;;;6.03;;
69392;SDS011;56582;44.624;20.378;2022-07-23T09:30:27;10.23;;;5.70;;
69392;SDS011;56582;44.624;20.378;2022-07-23T09:33:06;9.10;;;5.68;;
69392;SDS011;56582;44.624;20.378;2022-07-23T09:35:45;10.10;;;5.80;;
69392;SDS011;56582;44.624;20.378;2022-07-23T09:38:15;9.88;;;6.35;;
69392;SDS011;56582;44.624;20.378;2022-07-23T09:40:41;8.87;;;5.63;;
69392;SDS011;56582;44.624;20.378;2022-07-23T09:43:08;9.68;;;5.80;;
69392;SDS011;56582;44.624;20.378;2022-07-23T09:45:33;10.27;;;5.88;;
69392;SDS011;56582;44.624;20.378;2022-07-23T09:48:09;9.83;;;6.10;;
69392;SDS011;56582;44.624;20.378;2022-07-23T09:50:42;9.85;;;5.90;;
69392;SDS011;56582;44.624;20.378;2022-07-23T09:53:09;7.75;;;6.25;;
69392;SDS011;56582;44.624;20.378;2022-07-23T09:55:48;8.57;;;5.85;;
69392;SDS011;56582;44.624;20.378;2022-07-23T09:58:14;9.73;;;6.23;;
69392;SDS011;56582;44.624;20.378;2022-07-23T10:00:42;12.33;;;5.80;;
69392;SDS011;56582;44.624;20.378;2022-07-23T10:03:09;8.40;;;5.65;;
69392;SDS011;56582;44.624;20.378;2022-07-23T10:05:37;11.43;;;6.00;;
69392;SDS011;56582;44.624;20.378;2022-07-23T10:08:04;8.13;;;5.63;;
69392;SDS011;56582;44.624;20.378;2022-07-23T10:10:32;8.43;;;6.43;;
69392;SDS011;56582;44.624;20.378;2022-07-23T10:12:58;8.47;;;6.43;;
69392;SDS011;56582;44.624;20.378;2022-07-23T10:15:42;11.05;;;5.80;;
69392;SDS011;56582;44.624;20.378;2022-07-23T10:18:09;10.83;;;6.13;;
69392;SDS011;56582;44.624;20.378;2022-07-23T10:20:37;8.10;;;5.97;;
69392;SDS011;56582;44.624;20.378;2022-07-23T10:26:03;10.10;;;6.50;;
69392;SDS011;56582;44.624;20.378;2022-07-23T10:29:01;9.02;;;6.03;;
69392;SDS011;56582;44.624;20.378;2022-07-23T10:34:19;9.70;;;6.15;;
69392;SDS011;56582;44.624;20.378;2022-07-23T10:36:56;8.27;;;6.45;;
69392;SDS011;56582;44.624;20.378;2022-07-23T10:39:24;8.33;;;6.47;;
69392;SDS011;56582;44.624;20.378;2022-07-23T10:41:53;12.07;;;6.20;;
69392;SDS011;56582;44.624;20.378;2022-07-23T10:44:43;9.07;;;6.70;;
69392;SDS011;56582;44.624;20.378;2022-07-23T10:47:11;10.25;;;5.88;;
69392;SDS011;56582;44.624;20.378;2022-07-23T10:49:49;12.13;;;6.55;;
69392;SDS011;56582;44.624;20.378;2022-07-23T10:57:10;9.30;;;6.72;;
69392;SDS011;56582;44.624;20.378;2022-07-23T11:02:34;9.10;;;6.22;;
69392;SDS011;56582;44.624;20.378;2022-07-23T11:05:03;8.67;;;6.40;;
69392;SDS011;56582;44.624;20.378;2022-07-23T11:07:30;10.05;;;6.75;;
69392;SDS011;56582;44.624;20.378;2022-07-23T11:09:56;10.57;;;6.85;;
69392;SDS011;56582;44.624;20.378;2022-07-23T11:22:37;8.67;;;6.40;;
69392;SDS011;56582;44.624;20.378;2022-07-23T11:28:09;10.15;;;6.88;;
69392;SDS011;56582;44.624;20.378;2022-07-23T11:35:41;7.35;;;6.38;;
69392;SDS011;56582;44.624;20.378;2022-07-23T11:40:46;9.30;;;7.00;;
69392;SDS011;56582;44.624;20.378;2022-07-23T11:43:13;8.90;;;6.43;;
69392;SDS011;56582;44.624;20.378;2022-07-23T11:45:41;9.32;;;6.93;;
69392;SDS011;56582;44.624;20.378;2022-07-23T11:48:07;8.25;;;6.15;;
69392;SDS011;56582;44.624;20.378;2022-07-23T11:50:34;12.13;;;6.95;;
69392;SDS011;56582;44.624;20.378;2022-07-23T11:53:01;8.87;;;6.97;;
69392;SDS011;56582;44.624;20.378;2022-07-23T11:55:27;11.55;;;6.38;;
69392;SDS011;56582;44.624;20.378;2022-07-23T11:57:53;8.95;;;6.10;;
69392;SDS011;56582;44.624;20.378;2022-07-23T12:00:23;9.02;;;6.40;;
69392;SDS011;56582;44.624;20.378;2022-07-23T12:02:57;9.35;;;7.55;;
69392;SDS011;56582;44.624;20.378;2022-07-23T12:05:31;7.77;;;6.53;;
69392;SDS011;56582;44.624;20.378;2022-07-23T12:07:59;9.25;;;7.10;;
69392;SDS011;56582;44.624;20.378;2022-07-23T12:10:29;10.82;;;6.38;;
69392;SDS011;56582;44.624;20.378;2022-07-23T12:12:56;10.02;;;6.95;;
69392;SDS011;56582;44.624;20.378;2022-07-23T12:15:30;10.18;;;7.10;;
69392;SDS011;56582;44.624;20.378;2022-07-23T12:17:58;12.17;;;6.87;;
69392;SDS011;56582;44.624;20.378;2022-07-23T12:20:30;8.63;;;6.32;;
69392;SDS011;56582;44.624;20.378;2022-07-23T12:22:58;8.95;;;6.72;;
69392;SDS011;56582;44.624;20.378;2022-07-23T12:25:28;9.00;;;7.25;;
69392;SDS011;56582;44.624;20.378;2022-07-23T12:27:59;11.85;;;7.35;;
69392;SDS011;56582;44.624;20.378;2022-07-23T12:33:21;10.07;;;7.30;;
69392;SDS011;56582;44.624;20.378;2022-07-23T12:35:48;9.95;;;6.88;;
69392;SDS011;56582;44.624;20.378;2022-07-23T12:38:15;17.02;;;7.45;;
69392;SDS011;56582;44.624;20.378;2022-07-23T12:43:26;10.83;;;7.30;;
69392;SDS011;56582;44.624;20.378;2022-07-23T12:46:09;9.45;;;6.88;;
69392;SDS011;56582;44.624;20.378;2022-07-23T12:51:09;10.05;;;7.13;;
69392;SDS011;56582;44.624;20.378;2022-07-23T12:53:41;14.63;;;7.60;;
69392;SDS011;56582;44.624;20.378;2022-07-23T12:56:18;9.13;;;7.63;;
69392;SDS011;56582;44.624;20.378;2022-07-23T12:58:48;9.48;;;6.88;;
69392;SDS011;56582;44.624;20.378;2022-07-23T13:04:03;7.95;;;6.85;;
69392;SDS011;56582;44.624;20.378;2022-07-23T13:06:52;10.25;;;7.07;;
69392;SDS011;56582;44.624;20.378;2022-07-23T13:09:17;9.93;;;7.73;;
69392;SDS011;56582;44.624;20.378;2022-07-23T13:11:44;11.90;;;7.30;;
69392;SDS011;56582;44.624;20.378;2022-07-23T13:14:11;8.07;;;6.80;;
69392;SDS011;56582;44.624;20.378;2022-07-23T13:16:38;10.40;;;6.90;;
69392;SDS011;56582;44.624;20.378;2022-07-23T13:19:04;11.13;;;6.68;;
69392;SDS011;56582;44.624;20.378;2022-07-23T13:21:30;7.63;;;6.43;;
69392;SDS011;56582;44.624;20.378;2022-07-23T13:23:55;9.07;;;6.70;;
69392;SDS011;56582;44.624;20.378;2022-07-23T13:26:21;10.82;;;6.97;;
69392;SDS011;56582;44.624;20.378;2022-07-23T13:28:47;9.35;;;7.20;;
69392;SDS011;56582;44.624;20.378;2022-07-23T13:31:13;10.45;;;7.07;;
69392;SDS011;56582;44.624;20.378;2022-07-23T13:33:39;10.33;;;8.00;;
69392;SDS011;56582;44.624;20.378;2022-07-23T13:36:05;8.30;;;7.50;;
69392;SDS011;56582;44.624;20.378;2022-07-23T13:38:31;8.83;;;6.90;;
69392;SDS011;56582;44.624;20.378;2022-07-23T13:40:57;8.63;;;7.22;;
69392;SDS011;56582;44.624;20.378;2022-07-23T13:43:23;10.37;;;7.40;;
69392;SDS011;56582;44.624;20.378;2022-07-23T13:45:49;9.93;;;7.30;;
69392;SDS011;56582;44.624;20.378;2022-07-23T13:48:17;9.00;;;7.55;;
69392;SDS011;56582;44.624;20.378;2022-07-23T13:50:43;11.07;;;7.10;;
69392;SDS011;56582;44.624;20.378;2022-07-23T13:53:16;13.00;;;7.70;;
69392;SDS011;56582;44.624;20.378;2022-07-23T13:55:43;8.57;;;7.05;;
69392;SDS011;56582;44.624;20.378;2022-07-23T13:58:10;9.48;;;7.03;;
69392;SDS011;56582;44.624;20.378;2022-07-23T14:00:37;9.95;;;6.97;;
69392;SDS011;56582;44.624;20.378;2022-07-23T14:03:04;11.88;;;7.25;;
69392;SDS011;56582;44.624;20.378;2022-07-23T14:05:30;10.57;;;7.47;;
69392;SDS011;56582;44.624;20.378;2022-07-23T14:07:56;11.07;;;7.45;;
69392;SDS011;56582;44.624;20.378;2022-07-23T14:10:22;10.55;;;7.15;;
69392;SDS011;56582;44.624;20.378;2022-07-23T14:12:49;11.00;;;8.00;;
69392;SDS011;56582;44.624;20.378;2022-07-23T14:15:16;9.73;;;7.00;;
69392;SDS011;56582;44.624;20.378;2022-07-23T14:17:42;12.55;;;7.10;;
69392;SDS011;56582;44.624;20.378;2022-07-23T14:20:09;11.97;;;7.20;;
69392;SDS011;56582;44.624;20.378;2022-07-23T14:22:35;13.45;;;7.93;;
69392;SDS011;56582;44.624;20.378;2022-07-23T14:25:02;11.80;;;7.30;;
69392;SDS011;56582;44.624;20.378;2022-07-23T14:27:28;13.15;;;7.50;;
69392;SDS011;56582;44.624;20.378;2022-07-23T14:29:54;11.23;;;7.97;;
69392;SDS011;56582;44.624;20.378;2022-07-23T14:32:20;12.05;;;8.00;;
69392;SDS011;56582;44.624;20.378;2022-07-23T14:34:45;12.37;;;8.17;;
69392;SDS011;56582;44.624;20.378;2022-07-23T14:37:11;11.83;;;7.57;;
69392;SDS011;56582;44.624;20.378;2022-07-23T14:39:37;12.83;;;8.10;;
69392;SDS011;56582;44.624;20.378;2022-07-23T14:42:04;12.73;;;8.00;;
69392;SDS011;56582;44.624;20.378;2022-07-23T14:44:30;10.98;;;8.30;;
69392;SDS011;56582;44.624;20.378;2022-07-23T14:46:55;10.57;;;7.97;;
69392;SDS011;56582;44.624;20.378;2022-07-23T14:49:21;12.23;;;8.10;;
69392;SDS011;56582;44.624;20.378;2022-07-23T14:51:47;11.37;;;8.43;;
69392;SDS011;56582;44.624;20.378;2022-07-23T14:54:12;10.02;;;8.77;;
69392;SDS011;56582;44.624;20.378;2022-07-23T14:56:39;9.63;;;8.63;;
69392;SDS011;56582;44.624;20.378;2022-07-23T14:59:05;11.23;;;8.38;;
69392;SDS011;56582;44.624;20.378;2022-07-23T15:01:31;12.63;;;9.00;;
69392;SDS011;56582;44.624;20.378;2022-07-23T15:03:57;10.15;;;8.30;;
69392;SDS011;56582;44.624;20.378;2022-07-23T15:06:23;11.10;;;9.40;;
69392;SDS011;56582;44.624;20.378;2022-07-23T15:08:48;11.70;;;9.18;;
69392;SDS011;56582;44.624;20.378;2022-07-23T15:11:14;9.27;;;8.30;;
69392;SDS011;56582;44.624;20.378;2022-07-23T15:13:40;12.23;;;9.27;;
69392;SDS011;56582;44.624;20.378;2022-07-23T15:16:05;11.53;;;10.03;;